sensor_id;sensor_type;location;lat;lon;timestamp;P1;durP1;ratioP1;P2;durP2;ratioP2
20792;SDS011;10556;-33.662;151.094;2022-09-17T00:01:52;2.20;;;0.47;;
20792;SDS011;10556;-33.662;151.094;2022-09-17T00:06:53;2.40;;;0.50;;
20792;SDS011;10556;-33.662;151.094;2022-09-17T00:11:57;2.00;;;0.50;;
20792;SDS011;10556;-33.662;151.094;2022-09-17T00:16:58;3.23;;;0.60;;
20792;SDS011;10556;-33.662;151.094;2022-09-17T00:22:00;0.83;;;0.30;;
20792;SDS011;10556;-33.662;151.094;2022-09-17T00:27:03;1.40;;;0.50;;
20792;SDS011;10556;-33.662;151.094;2022-09-17T00:32:04;1.30;;;0.47;;
20792;SDS011;10556;-33.662;151.094;2022-09-17T00:37:06;1.50;;;0.33;;
20792;SDS011;10556;-33.662;151.094;2022-09-17T00:42:10;5.33;;;0.60;;
20792;SDS011;10556;-33.662;151.094;2022-09-17T00:47:13;3.10;;;0.60;;
20792;SDS011;10556;-33.662;151.094;2022-09-17T00:52:16;1.67;;;0.40;;
20792;SDS011;10556;-33.662;151.094;2022-09-17T00:57:20;3.20;;;1.00;;
20792;SDS011;10556;-33.662;151.094;2022-09-17T01:02:21;2.30;;;0.80;;
20792;SDS011;10556;-33.662;151.094;2022-09-17T01:07:28;2.97;;;0.57;;
20792;SDS011;10556;-33.662;151.094;2022-09-17T01:12:46;1.27;;;0.50;;
20792;SDS011;10556;-33.662;151.094;2022-09-17T01:17:52;1.63;;;0.47;;
20792;SDS011;10556;-33.662;151.094;2022-09-17T01:23:04;4.47;;;0.70;;
20792;SDS011;10556;-33.662;151.094;2022-09-17T01:33:38;4.00;;;0.90;;
20792;SDS011;10556;-33.662;151.094;2022-09-17T01:38:42;3.60;;;0.70;;
20792;SDS011;10556;-33.662;151.094;2022-09-17T01:43:45;8.17;;;0.80;;
20792;SDS011;10556;-33.662;151.094;2022-09-17T01:48:50;2.33;;;0.70;;
20792;SDS011;10556;-33.662;151.094;2022-09-17T01:53:56;3.10;;;0.77;;
20792;SDS011;10556;-33.662;151.094;2022-09-17T01:59:00;3.17;;;0.40;;
20792;SDS011;10556;-33.662;151.094;2022-09-17T02:04:04;2.37;;;0.50;;
20792;SDS011;10556;-33.662;151.094;2022-09-17T02:09:09;2.23;;;0.73;;
20792;SDS011;10556;-33.662;151.094;2022-09-17T02:14:12;1.30;;;0.50;;
20792;SDS011;10556;-33.662;151.094;2022-09-17T02:19:17;2.40;;;0.43;;
20792;SDS011;10556;-33.662;151.094;2022-09-17T02:24:20;1.10;;;0.40;;
20792;SDS011;10556;-33.662;151.094;2022-09-17T02:29:25;1.33;;;0.20;;
20792;SDS011;10556;-33.662;151.094;2022-09-17T02:34:31;2.07;;;0.57;;
20792;SDS011;10556;-33.662;151.094;2022-09-17T02:39:33;1.40;;;0.43;;
20792;SDS011;10556;-33.662;151.094;2022-09-17T02:44:35;0.33;;;0.20;;
20792;SDS011;10556;-33.662;151.094;2022-09-17T02:49:46;0.20;;;0.20;;
20792;SDS011;10556;-33.662;151.094;2022-09-17T02:54:50;2.23;;;0.37;;
20792;SDS011;10556;-33.662;151.094;2022-09-17T02:59:55;0.57;;;0.20;;
20792;SDS011;10556;-33.662;151.094;2022-09-17T03:04:59;0.87;;;0.30;;
20792;SDS011;10556;-33.662;151.094;2022-09-17T03:10:01;0.70;;;0.30;;
20792;SDS011;10556;-33.662;151.094;2022-09-17T03:15:02;0.20;;;0.20;;
20792;SDS011;10556;-33.662;151.094;2022-09-17T03:20:06;0.57;;;0.20;;
20792;SDS011;10556;-33.662;151.094;2022-09-17T03:25:08;1.50;;;0.20;;
20792;SDS011;10556;-33.662;151.094;2022-09-17T03:30:09;0.40;;;0.20;;
20792;SDS011;10556;-33.662;151.094;2022-09-17T03:35:12;1.80;;;0.20;;
20792;SDS011;10556;-33.662;151.094;2022-09-17T03:40:14;0.30;;;0.10;;
20792;SDS011;10556;-33.662;151.094;2022-09-17T03:45:15;2.37;;;0.20;;
20792;SDS011;10556;-33.662;151.094;2022-09-17T03:50:19;0.30;;;0.20;;
20792;SDS011;10556;-33.662;151.094;2022-09-17T03:55:20;1.90;;;0.20;;
20792;SDS011;10556;-33.662;151.094;2022-09-17T04:00:21;0.33;;;0.30;;
20792;SDS011;10556;-33.662;151.094;2022-09-17T04:05:25;1.03;;;0.30;;
20792;SDS011;10556;-33.662;151.094;2022-09-17T04:10:26;0.20;;;0.10;;
20792;SDS011;10556;-33.662;151.094;2022-09-17T04:15:27;0.60;;;0.20;;
20792;SDS011;10556;-33.662;151.094;2022-09-17T04:20:31;0.70;;;0.20;;
20792;SDS011;10556;-33.662;151.094;2022-09-17T04:25:32;1.27;;;0.20;;
20792;SDS011;10556;-33.662;151.094;2022-09-17T04:30:34;0.10;;;0.00;;
20792;SDS011;10556;-33.662;151.094;2022-09-17T04:35:37;0.57;;;0.20;;
20792;SDS011;10556;-33.662;151.094;2022-09-17T04:40:38;1.33;;;0.30;;
20792;SDS011;10556;-33.662;151.094;2022-09-17T04:45:40;1.60;;;0.40;;
20792;SDS011;10556;-33.662;151.094;2022-09-17T04:50:43;0.20;;;0.10;;
20792;SDS011;10556;-33.662;151.094;2022-09-17T04:55:45;0.30;;;0.20;;
20792;SDS011;10556;-33.662;151.094;2022-09-17T05:00:46;0.50;;;0.20;;
20792;SDS011;10556;-33.662;151.094;2022-09-17T05:05:50;0.50;;;0.30;;
20792;SDS011;10556;-33.662;151.094;2022-09-17T05:10:51;0.73;;;0.20;;
20792;SDS011;10556;-33.662;151.094;2022-09-17T05:15:53;0.77;;;0.10;;
20792;SDS011;10556;-33.662;151.094;2022-09-17T05:20:56;2.50;;;0.20;;
20792;SDS011;10556;-33.662;151.094;2022-09-17T05:25:58;0.80;;;0.20;;
20792;SDS011;10556;-33.662;151.094;2022-09-17T05:30:59;0.30;;;0.20;;
20792;SDS011;10556;-33.662;151.094;2022-09-17T05:36:03;1.10;;;0.20;;
20792;SDS011;10556;-33.662;151.094;2022-09-17T05:41:05;0.20;;;0.10;;
20792;SDS011;10556;-33.662;151.094;2022-09-17T05:46:07;0.20;;;0.10;;
20792;SDS011;10556;-33.662;151.094;2022-09-17T05:51:10;0.73;;;0.30;;
20792;SDS011;10556;-33.662;151.094;2022-09-17T05:56:11;0.57;;;0.20;;
20792;SDS011;10556;-33.662;151.094;2022-09-17T06:01:13;1.33;;;0.30;;
20792;SDS011;10556;-33.662;151.094;2022-09-17T06:06:16;3.37;;;0.47;;
20792;SDS011;10556;-33.662;151.094;2022-09-17T06:11:18;0.40;;;0.20;;
20792;SDS011;10556;-33.662;151.094;2022-09-17T06:16:19;4.53;;;0.47;;
20792;SDS011;10556;-33.662;151.094;2022-09-17T06:21:23;0.10;;;0.10;;
20792;SDS011;10556;-33.662;151.094;2022-09-17T06:26:24;0.87;;;0.50;;
20792;SDS011;10556;-33.662;151.094;2022-09-17T06:31:26;1.20;;;0.53;;
20792;SDS011;10556;-33.662;151.094;2022-09-17T06:36:29;1.37;;;0.67;;
20792;SDS011;10556;-33.662;151.094;2022-09-17T06:41:30;3.70;;;0.70;;
20792;SDS011;10556;-33.662;151.094;2022-09-17T06:46:32;1.23;;;0.60;;
20792;SDS011;10556;-33.662;151.094;2022-09-17T06:51:35;2.40;;;0.40;;
20792;SDS011;10556;-33.662;151.094;2022-09-17T06:56:36;0.40;;;0.20;;
20792;SDS011;10556;-33.662;151.094;2022-09-17T07:01:38;1.33;;;0.50;;
20792;SDS011;10556;-33.662;151.094;2022-09-17T07:06:41;2.20;;;0.50;;
20792;SDS011;10556;-33.662;151.094;2022-09-17T07:11:43;8.10;;;1.13;;
20792;SDS011;10556;-33.662;151.094;2022-09-17T07:16:44;2.13;;;0.60;;
20792;SDS011;10556;-33.662;151.094;2022-09-17T07:21:49;4.20;;;0.53;;
20792;SDS011;10556;-33.662;151.094;2022-09-17T07:26:51;1.90;;;0.57;;
20792;SDS011;10556;-33.662;151.094;2022-09-17T07:31:53;4.43;;;0.37;;
20792;SDS011;10556;-33.662;151.094;2022-09-17T07:36:56;4.73;;;0.87;;
20792;SDS011;10556;-33.662;151.094;2022-09-17T07:41:58;36.33;;;2.83;;
20792;SDS011;10556;-33.662;151.094;2022-09-17T07:46:59;0.57;;;0.40;;
20792;SDS011;10556;-33.662;151.094;2022-09-17T07:52:03;0.77;;;0.40;;
20792;SDS011;10556;-33.662;151.094;2022-09-17T07:57:04;1.90;;;0.43;;
20792;SDS011;10556;-33.662;151.094;2022-09-17T08:02:08;1.33;;;0.30;;
20792;SDS011;10556;-33.662;151.094;2022-09-17T08:07:12;2.13;;;0.40;;
20792;SDS011;10556;-33.662;151.094;2022-09-17T08:12:14;2.13;;;0.40;;
20792;SDS011;10556;-33.662;151.094;2022-09-17T08:17:15;1.60;;;0.50;;
20792;SDS011;10556;-33.662;151.094;2022-09-17T08:22:19;0.67;;;0.30;;
20792;SDS011;10556;-33.662;151.094;2022-09-17T08:27:20;1.30;;;0.40;;
20792;SDS011;10556;-33.662;151.094;2022-09-17T08:32:22;0.97;;;0.27;;
20792;SDS011;10556;-33.662;151.094;2022-09-17T08:37:25;0.90;;;0.40;;
20792;SDS011;10556;-33.662;151.094;2022-09-17T08:42:29;1.10;;;0.40;;
20792;SDS011;10556;-33.662;151.094;2022-09-17T08:47:33;2.13;;;0.70;;
20792;SDS011;10556;-33.662;151.094;2022-09-17T08:52:41;2.30;;;0.70;;
20792;SDS011;10556;-33.662;151.094;2022-09-17T08:57:44;1.80;;;0.67;;
20792;SDS011;10556;-33.662;151.094;2022-09-17T09:03:01;1.23;;;0.50;;
20792;SDS011;10556;-33.662;151.094;2022-09-17T09:08:09;1.03;;;0.60;;
20792;SDS011;10556;-33.662;151.094;2022-09-17T09:13:12;1.97;;;0.60;;
20792;SDS011;10556;-33.662;151.094;2022-09-17T09:18:16;2.10;;;0.60;;
20792;SDS011;10556;-33.662;151.094;2022-09-17T09:23:23;1.80;;;1.57;;
20792;SDS011;10556;-33.662;151.094;2022-09-17T09:28:31;2.63;;;2.10;;
20792;SDS011;10556;-33.662;151.094;2022-09-17T09:33:35;1.80;;;1.10;;
20792;SDS011;10556;-33.662;151.094;2022-09-17T09:38:42;2.10;;;0.90;;
20792;SDS011;10556;-33.662;151.094;2022-09-17T09:43:45;0.80;;;0.60;;
20792;SDS011;10556;-33.662;151.094;2022-09-17T09:48:50;4.77;;;0.60;;
20792;SDS011;10556;-33.662;151.094;2022-09-17T09:54:01;2.20;;;0.60;;
20792;SDS011;10556;-33.662;151.094;2022-09-17T09:59:06;1.53;;;0.77;;
20792;SDS011;10556;-33.662;151.094;2022-09-17T10:04:13;2.37;;;0.60;;
20792;SDS011;10556;-33.662;151.094;2022-09-17T10:09:17;0.60;;;0.50;;
20792;SDS011;10556;-33.662;151.094;2022-09-17T10:14:22;2.60;;;0.40;;
20792;SDS011;10556;-33.662;151.094;2022-09-17T10:19:24;2.17;;;0.60;;
20792;SDS011;10556;-33.662;151.094;2022-09-17T10:24:27;2.43;;;0.70;;
20792;SDS011;10556;-33.662;151.094;2022-09-17T10:29:30;1.53;;;0.43;;
20792;SDS011;10556;-33.662;151.094;2022-09-17T10:34:31;3.53;;;0.90;;
20792;SDS011;10556;-33.662;151.094;2022-09-17T10:39:36;1.70;;;0.47;;
20792;SDS011;10556;-33.662;151.094;2022-09-17T10:44:37;0.80;;;0.40;;
20792;SDS011;10556;-33.662;151.094;2022-09-17T10:49:40;1.23;;;0.40;;
20792;SDS011;10556;-33.662;151.094;2022-09-17T11:00:18;1.80;;;0.57;;
20792;SDS011;10556;-33.662;151.094;2022-09-17T11:05:25;1.63;;;0.50;;
20792;SDS011;10556;-33.662;151.094;2022-09-17T11:10:33;1.97;;;0.50;;
20792;SDS011;10556;-33.662;151.094;2022-09-17T11:15:42;2.37;;;0.57;;
20792;SDS011;10556;-33.662;151.094;2022-09-17T11:20:56;3.50;;;1.13;;
20792;SDS011;10556;-33.662;151.094;2022-09-17T11:25:59;0.97;;;0.40;;
20792;SDS011;10556;-33.662;151.094;2022-09-17T11:31:08;7.47;;;4.10;;
20792;SDS011;10556;-33.662;151.094;2022-09-17T11:36:14;9.07;;;5.20;;
20792;SDS011;10556;-33.662;151.094;2022-09-17T11:41:19;8.83;;;4.17;;
20792;SDS011;10556;-33.662;151.094;2022-09-17T11:46:23;11.87;;;6.27;;
20792;SDS011;10556;-33.662;151.094;2022-09-17T11:51:26;8.83;;;4.33;;
20792;SDS011;10556;-33.662;151.094;2022-09-17T11:56:32;9.80;;;5.13;;
20792;SDS011;10556;-33.662;151.094;2022-09-17T12:01:37;3.23;;;1.00;;
20792;SDS011;10556;-33.662;151.094;2022-09-17T12:06:43;4.77;;;1.83;;
20792;SDS011;10556;-33.662;151.094;2022-09-17T12:11:48;2.17;;;0.50;;
20792;SDS011;10556;-33.662;151.094;2022-09-17T12:16:54;5.50;;;0.80;;
20792;SDS011;10556;-33.662;151.094;2022-09-17T12:22:00;1.63;;;0.80;;
20792;SDS011;10556;-33.662;151.094;2022-09-17T12:27:06;2.17;;;0.40;;
20792;SDS011;10556;-33.662;151.094;2022-09-17T12:32:16;1.77;;;0.30;;
20792;SDS011;10556;-33.662;151.094;2022-09-17T12:37:22;2.70;;;0.97;;
20792;SDS011;10556;-33.662;151.094;2022-09-17T12:42:31;2.53;;;0.30;;
20792;SDS011;10556;-33.662;151.094;2022-09-17T12:47:53;0.70;;;0.30;;
20792;SDS011;10556;-33.662;151.094;2022-09-17T12:53:00;1.23;;;0.40;;
20792;SDS011;10556;-33.662;151.094;2022-09-17T12:58:06;2.73;;;0.70;;
20792;SDS011;10556;-33.662;151.094;2022-09-17T13:03:14;2.13;;;0.33;;
20792;SDS011;10556;-33.662;151.094;2022-09-17T13:08:28;1.10;;;0.20;;
20792;SDS011;10556;-33.662;151.094;2022-09-17T13:13:35;2.63;;;0.30;;
20792;SDS011;10556;-33.662;151.094;2022-09-17T13:18:40;2.00;;;0.47;;
20792;SDS011;10556;-33.662;151.094;2022-09-17T13:23:44;0.30;;;0.30;;
20792;SDS011;10556;-33.662;151.094;2022-09-17T13:28:46;1.73;;;0.60;;
20792;SDS011;10556;-33.662;151.094;2022-09-17T13:33:53;2.93;;;0.73;;
20792;SDS011;10556;-33.662;151.094;2022-09-17T13:38:55;6.03;;;0.70;;
20792;SDS011;10556;-33.662;151.094;2022-09-17T13:44:00;2.30;;;0.40;;
20792;SDS011;10556;-33.662;151.094;2022-09-17T13:49:04;1.20;;;0.50;;
20792;SDS011;10556;-33.662;151.094;2022-09-17T13:54:11;1.63;;;0.50;;
20792;SDS011;10556;-33.662;151.094;2022-09-17T13:59:15;0.77;;;0.40;;
20792;SDS011;10556;-33.662;151.094;2022-09-17T14:09:43;1.67;;;0.40;;
20792;SDS011;10556;-33.662;151.094;2022-09-17T14:14:47;2.53;;;0.67;;
20792;SDS011;10556;-33.662;151.094;2022-09-17T14:19:51;1.83;;;0.70;;
20792;SDS011;10556;-33.662;151.094;2022-09-17T14:24:54;1.13;;;0.23;;
20792;SDS011;10556;-33.662;151.094;2022-09-17T14:30:02;1.97;;;0.37;;
20792;SDS011;10556;-33.662;151.094;2022-09-17T14:35:11;1.43;;;0.30;;
20792;SDS011;10556;-33.662;151.094;2022-09-17T14:40:17;0.97;;;0.23;;
20792;SDS011;10556;-33.662;151.094;2022-09-17T14:45:19;2.00;;;0.40;;
20792;SDS011;10556;-33.662;151.094;2022-09-17T14:50:22;1.33;;;0.10;;
20792;SDS011;10556;-33.662;151.094;2022-09-17T14:55:26;2.30;;;0.60;;
20792;SDS011;10556;-33.662;151.094;2022-09-17T15:00:29;0.40;;;0.20;;
20792;SDS011;10556;-33.662;151.094;2022-09-17T15:05:33;0.80;;;0.33;;
20792;SDS011;10556;-33.662;151.094;2022-09-17T15:10:38;0.80;;;0.30;;
20792;SDS011;10556;-33.662;151.094;2022-09-17T15:15:55;0.40;;;0.30;;
20792;SDS011;10556;-33.662;151.094;2022-09-17T15:20:57;2.10;;;0.40;;
20792;SDS011;10556;-33.662;151.094;2022-09-17T15:26:01;2.53;;;0.30;;
20792;SDS011;10556;-33.662;151.094;2022-09-17T15:31:03;0.80;;;0.30;;
20792;SDS011;10556;-33.662;151.094;2022-09-17T15:36:12;1.67;;;0.27;;
20792;SDS011;10556;-33.662;151.094;2022-09-17T15:41:23;0.90;;;0.40;;
20792;SDS011;10556;-33.662;151.094;2022-09-17T15:46:28;2.23;;;0.30;;
20792;SDS011;10556;-33.662;151.094;2022-09-17T15:51:30;1.10;;;0.40;;
20792;SDS011;10556;-33.662;151.094;2022-09-17T15:56:35;0.90;;;0.40;;
20792;SDS011;10556;-33.662;151.094;2022-09-17T16:01:49;1.17;;;0.27;;
20792;SDS011;10556;-33.662;151.094;2022-09-17T16:06:52;0.80;;;0.30;;
20792;SDS011;10556;-33.662;151.094;2022-09-17T16:11:58;0.67;;;0.20;;
20792;SDS011;10556;-33.662;151.094;2022-09-17T16:17:07;0.93;;;0.20;;
20792;SDS011;10556;-33.662;151.094;2022-09-17T16:22:09;2.00;;;0.20;;
20792;SDS011;10556;-33.662;151.094;2022-09-17T16:27:13;0.20;;;0.20;;
20792;SDS011;10556;-33.662;151.094;2022-09-17T16:32:16;2.27;;;0.30;;
20792;SDS011;10556;-33.662;151.094;2022-09-17T16:37:17;0.73;;;0.20;;
20792;SDS011;10556;-33.662;151.094;2022-09-17T16:42:21;0.40;;;0.20;;
20792;SDS011;10556;-33.662;151.094;2022-09-17T16:47:22;0.83;;;0.27;;
20792;SDS011;10556;-33.662;151.094;2022-09-17T16:52:24;1.20;;;0.10;;
20792;SDS011;10556;-33.662;151.094;2022-09-17T16:57:28;0.30;;;0.10;;
20792;SDS011;10556;-33.662;151.094;2022-09-17T17:02:30;0.70;;;0.20;;
20792;SDS011;10556;-33.662;151.094;2022-09-17T17:07:32;0.90;;;0.27;;
20792;SDS011;10556;-33.662;151.094;2022-09-17T17:12:36;1.00;;;0.27;;
20792;SDS011;10556;-33.662;151.094;2022-09-17T17:17:38;1.07;;;0.30;;
20792;SDS011;10556;-33.662;151.094;2022-09-17T17:22:39;0.27;;;0.10;;
20792;SDS011;10556;-33.662;151.094;2022-09-17T17:27:43;1.47;;;0.30;;
20792;SDS011;10556;-33.662;151.094;2022-09-17T17:32:47;0.60;;;0.10;;
20792;SDS011;10556;-33.662;151.094;2022-09-17T17:37:49;0.13;;;0.10;;
20792;SDS011;10556;-33.662;151.094;2022-09-17T17:42:52;0.70;;;0.20;;
20792;SDS011;10556;-33.662;151.094;2022-09-17T17:47:54;0.63;;;0.10;;
20792;SDS011;10556;-33.662;151.094;2022-09-17T17:52:55;0.47;;;0.13;;
20792;SDS011;10556;-33.662;151.094;2022-09-17T17:58:09;0.70;;;0.10;;
20792;SDS011;10556;-33.662;151.094;2022-09-17T18:03:10;0.23;;;0.17;;
20792;SDS011;10556;-33.662;151.094;2022-09-17T18:08:12;1.60;;;0.30;;
20792;SDS011;10556;-33.662;151.094;2022-09-17T18:13:16;0.27;;;0.20;;
20792;SDS011;10556;-33.662;151.094;2022-09-17T18:18:18;1.27;;;0.10;;
20792;SDS011;10556;-33.662;151.094;2022-09-17T18:23:19;0.17;;;0.10;;
20792;SDS011;10556;-33.662;151.094;2022-09-17T18:28:23;0.10;;;0.10;;
20792;SDS011;10556;-33.662;151.094;2022-09-17T18:33:25;0.40;;;0.13;;
20792;SDS011;10556;-33.662;151.094;2022-09-17T18:38:26;1.17;;;0.27;;
20792;SDS011;10556;-33.662;151.094;2022-09-17T18:43:30;0.10;;;0.10;;
20792;SDS011;10556;-33.662;151.094;2022-09-17T18:48:32;1.70;;;0.10;;
20792;SDS011;10556;-33.662;151.094;2022-09-17T18:53:34;1.00;;;0.20;;
20792;SDS011;10556;-33.662;151.094;2022-09-17T18:58:38;0.63;;;0.10;;
20792;SDS011;10556;-33.662;151.094;2022-09-17T19:03:39;0.40;;;0.10;;
20792;SDS011;10556;-33.662;151.094;2022-09-17T19:08:42;1.07;;;0.20;;
20792;SDS011;10556;-33.662;151.094;2022-09-17T19:13:45;0.07;;;0.07;;
20792;SDS011;10556;-33.662;151.094;2022-09-17T19:18:47;0.43;;;0.10;;
20792;SDS011;10556;-33.662;151.094;2022-09-17T19:23:48;0.30;;;0.20;;
20792;SDS011;10556;-33.662;151.094;2022-09-17T19:28:52;0.70;;;0.10;;
20792;SDS011;10556;-33.662;151.094;2022-09-17T19:33:54;0.43;;;0.13;;
20792;SDS011;10556;-33.662;151.094;2022-09-17T19:38:56;0.37;;;0.20;;
20792;SDS011;10556;-33.662;151.094;2022-09-17T19:43:59;0.53;;;0.10;;
20792;SDS011;10556;-33.662;151.094;2022-09-17T19:49:00;0.20;;;0.10;;
20792;SDS011;10556;-33.662;151.094;2022-09-17T19:54:02;0.77;;;0.10;;
20792;SDS011;10556;-33.662;151.094;2022-09-17T19:59:05;0.20;;;0.10;;
20792;SDS011;10556;-33.662;151.094;2022-09-17T20:04:06;0.90;;;0.10;;
20792;SDS011;10556;-33.662;151.094;2022-09-17T20:09:08;0.63;;;0.10;;
20792;SDS011;10556;-33.662;151.094;2022-09-17T20:14:11;0.00;;;0.00;;
20792;SDS011;10556;-33.662;151.094;2022-09-17T20:19:13;1.97;;;0.13;;
20792;SDS011;10556;-33.662;151.094;2022-09-17T20:24:15;0.40;;;0.20;;
20792;SDS011;10556;-33.662;151.094;2022-09-17T20:29:18;0.83;;;0.10;;
20792;SDS011;10556;-33.662;151.094;2022-09-17T20:34:20;0.00;;;0.00;;
20792;SDS011;10556;-33.662;151.094;2022-09-17T20:39:21;1.67;;;0.20;;
20792;SDS011;10556;-33.662;151.094;2022-09-17T20:44:25;0.67;;;0.00;;
20792;SDS011;10556;-33.662;151.094;2022-09-17T20:49:26;0.40;;;0.17;;
20792;SDS011;10556;-33.662;151.094;2022-09-17T20:54:28;0.50;;;0.17;;
20792;SDS011;10556;-33.662;151.094;2022-09-17T20:59:31;0.10;;;0.03;;
20792;SDS011;10556;-33.662;151.094;2022-09-17T21:04:33;0.73;;;0.20;;
20792;SDS011;10556;-33.662;151.094;2022-09-17T21:09:34;0.73;;;0.10;;
20792;SDS011;10556;-33.662;151.094;2022-09-17T21:14:37;0.13;;;0.13;;
20792;SDS011;10556;-33.662;151.094;2022-09-17T21:19:39;0.47;;;0.10;;
20792;SDS011;10556;-33.662;151.094;2022-09-17T21:24:40;0.30;;;0.17;;
20792;SDS011;10556;-33.662;151.094;2022-09-17T21:29:43;0.77;;;0.20;;
20792;SDS011;10556;-33.662;151.094;2022-09-17T21:34:45;0.10;;;0.10;;
20792;SDS011;10556;-33.662;151.094;2022-09-17T21:39:46;2.00;;;0.30;;
20792;SDS011;10556;-33.662;151.094;2022-09-17T21:44:50;1.20;;;0.20;;
20792;SDS011;10556;-33.662;151.094;2022-09-17T21:49:51;1.93;;;0.20;;
20792;SDS011;10556;-33.662;151.094;2022-09-17T21:54:52;0.40;;;0.10;;
20792;SDS011;10556;-33.662;151.094;2022-09-17T21:59:55;0.20;;;0.20;;
20792;SDS011;10556;-33.662;151.094;2022-09-17T22:04:57;0.47;;;0.00;;
20792;SDS011;10556;-33.662;151.094;2022-09-17T22:09:58;0.87;;;0.17;;
20792;SDS011;10556;-33.662;151.094;2022-09-17T22:15:01;0.93;;;0.10;;
20792;SDS011;10556;-33.662;151.094;2022-09-17T22:20:03;1.13;;;0.10;;
20792;SDS011;10556;-33.662;151.094;2022-09-17T22:25:05;0.43;;;0.10;;
20792;SDS011;10556;-33.662;151.094;2022-09-17T22:30:09;0.20;;;0.10;;
20792;SDS011;10556;-33.662;151.094;2022-09-17T22:35:10;0.40;;;0.10;;
20792;SDS011;10556;-33.662;151.094;2022-09-17T22:40:11;0.20;;;0.10;;
20792;SDS011;10556;-33.662;151.094;2022-09-17T22:45:15;2.10;;;0.27;;
20792;SDS011;10556;-33.662;151.094;2022-09-17T22:50:16;1.27;;;0.20;;
20792;SDS011;10556;-33.662;151.094;2022-09-17T22:55:18;0.40;;;0.20;;
20792;SDS011;10556;-33.662;151.094;2022-09-17T23:00:21;2.27;;;0.30;;
20792;SDS011;10556;-33.662;151.094;2022-09-17T23:05:22;0.70;;;0.20;;
20792;SDS011;10556;-33.662;151.094;2022-09-17T23:10:24;1.10;;;0.30;;
20792;SDS011;10556;-33.662;151.094;2022-09-17T23:15:27;0.30;;;0.17;;
20792;SDS011;10556;-33.662;151.094;2022-09-17T23:20:28;0.80;;;0.20;;
20792;SDS011;10556;-33.662;151.094;2022-09-17T23:25:30;2.37;;;0.27;;
20792;SDS011;10556;-33.662;151.094;2022-09-17T23:30:34;1.53;;;0.17;;
20792;SDS011;10556;-33.662;151.094;2022-09-17T23:35:35;0.40;;;0.20;;
20792;SDS011;10556;-33.662;151.094;2022-09-17T23:40:37;0.93;;;0.20;;
20792;SDS011;10556;-33.662;151.094;2022-09-17T23:45:40;2.00;;;0.30;;
20792;SDS011;10556;-33.662;151.094;2022-09-17T23:50:41;0.30;;;0.10;;
20792;SDS011;10556;-33.662;151.094;2022-09-17T23:55:45;0.30;;;0.10;;
